createdAt,value
2023-03-17T00:02:11.606Z,92164.16
2023-03-17T00:04:40.141Z,92167.22
2023-03-17T00:07:09.688Z,92162.69
2023-03-17T00:09:38.350Z,92163.78
2023-03-17T00:12:11.701Z,92168.03
2023-03-17T00:14:41.767Z,92165.34
2023-03-17T00:17:14.131Z,92163.78
2023-03-17T00:19:44.667Z,92150.81
2023-03-17T00:22:18.444Z,92148.03
2023-03-17T00:24:46.894Z,92142.31
2023-03-17T00:27:16.988Z,92135.47
2023-03-17T00:29:47.045Z,92130.72
2023-03-17T00:32:19.462Z,92124.75
2023-03-17T00:34:48.493Z,92128.28
2023-03-17T00:37:16.934Z,92136.41
2023-03-17T00:39:45.376Z,92121.16
2023-03-17T00:42:14.336Z,92119.19
2023-03-17T00:44:42.786Z,92104.63
2023-03-17T00:47:13.178Z,92109.97
2023-03-17T00:49:41.712Z,92126.13
2023-03-17T00:52:10.622Z,92119.44
2023-03-17T00:54:39.072Z,92133.88
2023-03-17T00:57:10.916Z,92124.75
2023-03-17T00:59:42.380Z,92119.56
2023-03-17T01:02:14.000Z,92121.66
2023-03-17T01:04:49.981Z,92114.59
2023-03-17T01:07:21.384Z,92121.63
2023-03-17T01:09:49.936Z,92127.81
2023-03-17T01:12:18.409Z,92123.50
2023-03-17T01:14:47.090Z,92115.22
2023-03-17T01:17:19.468Z,92105.50
2023-03-17T01:19:48.925Z,92100.78
2023-03-17T01:22:17.409Z,92102.22
2023-03-17T01:24:47.816Z,92088.97
2023-03-17T01:27:16.554Z,92086.53
2023-03-17T01:29:44.989Z,92095.47
2023-03-17T01:32:13.737Z,92103.31
2023-03-17T01:34:43.811Z,92110.59
2023-03-17T01:37:13.551Z,92098.25
2023-03-17T01:39:43.111Z,92085.00
2023-03-17T01:42:11.792Z,92085.34
2023-03-17T01:44:59.809Z,92082.34
2023-03-17T01:47:32.113Z,92085.31
2023-03-17T01:50:07.619Z,92083.31
2023-03-17T01:52:38.036Z,92084.91
2023-03-17T01:55:10.595Z,92077.59
2023-03-17T01:57:42.169Z,92081.03
2023-03-17T02:00:16.418Z,92084.91
2023-03-17T02:02:50.337Z,92071.53
2023-03-17T02:05:24.343Z,92072.38
2023-03-17T02:07:53.609Z,92073.16
2023-03-17T02:10:25.258Z,92065.78
2023-03-17T02:12:57.239Z,92068.00
2023-03-17T02:15:36.573Z,92057.38
2023-03-17T02:18:05.340Z,92063.44
2023-03-17T02:21:42.134Z,92051.88
2023-03-17T02:24:19.808Z,92056.16
2023-03-17T02:26:49.710Z,92061.03
2023-03-17T02:29:18.658Z,92068.88
2023-03-17T02:31:47.458Z,92065.22
2023-03-17T02:34:35.190Z,92069.44
2023-03-17T02:37:05.751Z,92072.41
2023-03-17T02:39:34.522Z,92066.22
2023-03-17T02:42:03.253Z,92058.47
2023-03-17T02:44:31.798Z,92054.63
2023-03-17T02:47:01.043Z,92057.84
2023-03-17T02:49:30.558Z,92053.41
2023-03-17T02:51:59.438Z,92061.31
2023-03-17T02:54:29.569Z,92060.53
2023-03-17T02:56:58.045Z,92054.94
2023-03-17T02:59:26.550Z,92055.28
2023-03-17T03:01:56.216Z,92052.72
2023-03-17T03:04:26.159Z,92058.69
2023-03-17T03:06:54.956Z,92048.09
2023-03-17T03:09:24.282Z,92048.44
2023-03-17T03:11:54.383Z,92047.00
2023-03-17T03:14:22.875Z,92057.06
2023-03-17T03:16:52.313Z,92054.97
2023-03-17T03:19:20.871Z,92064.69
2023-03-17T03:21:49.544Z,92057.38
2023-03-17T03:24:18.000Z,92050.88
2023-03-17T03:26:46.506Z,92051.63
2023-03-17T03:29:17.132Z,92054.28
2023-03-17T03:31:45.551Z,92059.13
2023-03-17T03:34:13.999Z,92061.66
2023-03-17T03:36:42.944Z,92061.09
2023-03-17T03:39:14.225Z,92061.44
2023-03-17T03:41:43.447Z,92065.06
2023-03-17T03:44:11.973Z,92059.00
2023-03-17T03:46:42.033Z,92067.03
2023-03-17T03:49:10.735Z,92049.72
2023-03-17T03:51:39.456Z,92050.84
2023-03-17T03:54:08.191Z,92050.09
2023-03-17T03:56:36.888Z,92050.97
2023-03-17T03:59:05.576Z,92052.28
2023-03-17T04:01:34.338Z,92056.63
2023-03-17T04:04:04.187Z,92053.19
2023-03-17T04:06:32.640Z,92056.16
2023-03-17T04:09:01.072Z,92066.81
2023-03-17T04:11:29.564Z,92071.78
2023-03-17T04:13:58.416Z,92066.50
2023-03-17T04:16:27.332Z,92057.69
2023-03-17T04:18:56.047Z,92066.56
2023-03-17T04:21:26.614Z,92065.94
2023-03-17T04:23:55.072Z,92061.94
2023-03-17T04:26:25.076Z,92057.13
2023-03-17T04:28:53.578Z,92061.97
2023-03-17T04:31:22.263Z,92063.03
2023-03-17T04:33:51.085Z,92056.84
2023-03-17T04:36:27.168Z,92056.56
2023-03-17T04:38:56.243Z,92048.03
2023-03-17T04:41:24.699Z,92047.84
2023-03-17T04:43:53.150Z,92040.78
2023-03-17T04:46:21.566Z,92041.19
2023-03-17T04:48:49.986Z,92051.28
2023-03-17T04:51:18.497Z,92051.09
2023-03-17T04:53:49.005Z,92048.72
2023-03-17T04:56:17.831Z,92045.34
2023-03-17T04:58:46.296Z,92045.41
2023-03-17T05:01:14.914Z,92048.50
2023-03-17T05:03:43.380Z,92052.44
2023-03-17T05:06:12.026Z,92053.28
2023-03-17T05:08:40.708Z,92049.47
2023-03-17T05:11:11.718Z,92045.59
2023-03-17T05:13:41.923Z,92052.53
2023-03-17T05:16:11.490Z,92046.38
2023-03-17T05:18:40.191Z,92054.72
2023-03-17T05:21:09.109Z,92053.75
2023-03-17T05:23:38.253Z,92057.03
2023-03-17T05:26:06.995Z,92054.06
2023-03-17T05:28:37.017Z,92049.63
2023-03-17T05:31:05.703Z,92056.63
2023-03-17T05:33:34.494Z,92051.25
2023-03-17T05:36:03.615Z,92054.69
2023-03-17T05:38:32.159Z,92057.53
2023-03-17T05:41:00.658Z,92056.22
2023-03-17T05:43:29.105Z,92058.44
2023-03-17T05:45:59.190Z,92058.56
2023-03-17T05:48:27.755Z,92056.13
2023-03-17T05:50:56.258Z,92052.28
2023-03-17T05:53:25.286Z,92051.53
2023-03-17T05:55:53.750Z,92051.16
2023-03-17T05:58:22.203Z,92061.41
2023-03-17T06:00:51.141Z,92052.88
2023-03-17T06:03:21.492Z,92057.28
2023-03-17T06:05:50.297Z,92056.09
2023-03-17T06:08:18.866Z,92056.47
2023-03-17T06:10:48.648Z,92044.22
2023-03-17T06:13:17.205Z,92048.31
2023-03-17T06:15:46.534Z,92056.56
2023-03-17T06:18:15.035Z,92042.25
2023-03-17T06:20:44.861Z,92046.69
2023-03-17T06:23:13.571Z,92043.91
2023-03-17T06:25:42.012Z,92047.13
2023-03-17T06:28:10.559Z,92062.91
2023-03-17T06:30:40.769Z,92057.59
2023-03-17T06:33:10.371Z,92060.47
2023-03-17T06:35:39.247Z,92071.50
2023-03-17T06:38:09.154Z,92074.28
2023-03-17T06:40:38.299Z,92072.28
2023-03-17T06:43:08.868Z,92067.97
2023-03-17T06:45:37.531Z,92066.09
2023-03-17T06:48:09.858Z,92065.44
2023-03-17T06:50:38.460Z,92067.63
2023-03-17T06:53:08.450Z,92068.38
2023-03-17T06:55:37.049Z,92052.84
2023-03-17T06:58:05.674Z,92056.63
2023-03-17T07:00:34.192Z,92063.59
2023-03-17T07:03:03.076Z,92068.34
2023-03-17T07:05:31.941Z,92063.44
2023-03-17T07:08:01.598Z,92060.09
2023-03-17T07:10:31.554Z,92058.72
2023-03-17T07:13:00.525Z,92062.00
2023-03-17T07:15:32.498Z,92060.63
2023-03-17T07:18:01.198Z,92066.91
2023-03-17T07:20:30.328Z,92065.81
2023-03-17T07:22:59.116Z,92063.84
2023-03-17T07:25:27.626Z,92060.16
2023-03-17T07:27:58.773Z,92061.13
2023-03-17T07:30:28.026Z,92069.84
2023-03-17T07:32:56.564Z,92061.44
2023-03-17T07:35:25.602Z,92055.22
2023-03-17T07:37:54.296Z,92054.31
2023-03-17T07:40:24.176Z,92053.25
2023-03-17T07:42:52.863Z,92045.53
2023-03-17T07:45:22.686Z,92049.63
2023-03-17T07:47:51.850Z,92050.78
2023-03-17T07:50:20.580Z,92048.59
2023-03-17T07:52:50.151Z,92053.50
2023-03-17T07:55:18.714Z,92044.19
2023-03-17T07:57:48.769Z,92049.72
2023-03-17T08:00:18.927Z,92046.81
2023-03-17T08:03:03.185Z,92043.03
2023-03-17T08:05:37.663Z,92045.78
2023-03-17T08:08:07.229Z,92041.13
2023-03-17T08:10:36.217Z,92044.75
2023-03-17T08:13:05.069Z,92040.16
2023-03-17T08:15:34.116Z,92034.78
2023-03-17T08:18:03.995Z,92030.84
2023-03-17T08:20:33.254Z,92024.06
2023-03-17T08:23:01.916Z,92025.25
2023-03-17T08:25:32.217Z,92026.25
2023-03-17T08:28:00.764Z,92019.16
2023-03-17T08:30:32.378Z,92013.47
2023-03-17T08:33:03.161Z,92007.22
2023-03-17T08:35:32.214Z,92012.50
2023-03-17T08:38:01.399Z,92007.47
2023-03-17T08:40:30.815Z,91996.97
2023-03-17T08:42:59.636Z,92006.88
2023-03-17T08:45:28.227Z,92005.47
2023-03-17T08:47:56.876Z,92002.44
2023-03-17T08:50:31.347Z,91994.88
2023-03-17T08:53:01.143Z,91989.59
2023-03-17T08:55:30.446Z,92001.84
2023-03-17T08:58:00.458Z,91989.28
2023-03-17T09:00:29.241Z,91991.19
2023-03-17T09:03:01.255Z,91985.00
2023-03-17T09:05:31.987Z,91982.03
2023-03-17T09:08:00.686Z,91983.53
2023-03-17T09:10:32.257Z,91975.09
2023-03-17T09:13:04.177Z,91983.56
2023-03-17T09:15:34.717Z,91977.38
2023-03-17T09:18:03.948Z,91976.53
2023-03-17T09:20:35.028Z,91979.59
2023-03-17T09:23:09.049Z,91984.53
2023-03-17T09:25:41.401Z,91974.34
2023-03-17T09:28:09.922Z,91980.22
2023-03-17T09:30:38.419Z,91976.03
2023-03-17T09:33:06.871Z,91970.50
2023-03-17T09:35:36.710Z,91966.63
2023-03-17T09:38:05.201Z,91970.75
2023-03-17T09:40:38.713Z,91963.47
2023-03-17T09:43:20.365Z,91963.63
2023-03-17T09:45:48.859Z,91966.69
2023-03-17T09:48:36.804Z,91959.56
2023-03-17T09:51:10.295Z,91963.13
2023-03-17T09:53:56.158Z,91960.69
2023-03-17T09:56:25.682Z,91965.56
2023-03-17T09:58:59.144Z,91969.28
2023-03-17T10:01:28.076Z,91966.91
2023-03-17T10:03:57.104Z,91966.81
2023-03-17T10:06:40.572Z,91964.09
2023-03-17T10:09:26.843Z,91949.50
2023-03-17T10:12:05.399Z,91942.25
2023-03-17T10:14:51.203Z,91947.50
2023-03-17T10:17:23.314Z,91937.19
2023-03-17T10:19:59.800Z,91935.53
2023-03-17T10:22:38.198Z,91929.88
2023-03-17T10:25:15.081Z,91934.69
2023-03-17T10:27:46.341Z,91925.28
2023-03-17T10:30:21.631Z,91927.63
2023-03-17T10:32:52.537Z,91920.59
2023-03-17T10:35:23.017Z,91915.34
2023-03-17T10:38:04.413Z,91915.41
2023-03-17T10:40:41.077Z,91917.69
2023-03-17T10:43:21.765Z,91914.34
2023-03-17T10:46:02.288Z,91904.00
2023-03-17T10:48:32.427Z,91905.97
2023-03-17T10:51:00.912Z,91916.09
2023-03-17T10:53:43.005Z,91909.66
2023-03-17T10:56:20.675Z,91910.31
2023-03-17T10:58:51.629Z,91911.38
2023-03-17T11:01:30.618Z,91912.81
2023-03-17T11:04:02.569Z,91909.28
2023-03-17T11:06:38.842Z,91909.50
2023-03-17T11:09:12.536Z,91912.16
2023-03-17T11:11:47.792Z,91912.66
2023-03-17T11:14:18.722Z,91898.47
2023-03-17T11:16:55.751Z,91897.47
2023-03-17T11:19:38.688Z,91896.19
2023-03-17T11:22:13.023Z,91886.78
2023-03-17T11:24:55.803Z,91883.78
2023-03-17T11:27:32.628Z,91882.69
2023-03-17T11:30:20.108Z,91881.72
2023-03-17T11:32:57.636Z,91875.50
2023-03-17T11:35:41.513Z,91878.47
2023-03-17T11:38:22.521Z,91869.81
2023-03-17T11:41:15.363Z,91870.25
2023-03-17T11:44:01.440Z,91870.22
2023-03-17T11:46:32.321Z,91875.28
2023-03-17T11:49:09.567Z,91885.66
2023-03-17T11:51:50.817Z,91874.75
2023-03-17T11:54:26.415Z,91873.41
2023-03-17T11:56:59.997Z,91875.97
2023-03-17T11:59:36.713Z,91881.53
2023-03-17T12:02:19.108Z,91877.69
2023-03-17T12:04:54.574Z,91872.31
2023-03-17T12:07:27.398Z,91870.94
2023-03-17T12:10:07.817Z,91869.16
2023-03-17T12:12:42.780Z,91879.75
2023-03-17T12:15:21.382Z,91876.72
2023-03-17T12:17:57.695Z,91864.41
2023-03-17T12:20:35.346Z,91857.63
2023-03-17T12:23:14.333Z,91860.13
2023-03-17T12:25:51.818Z,91862.56
2023-03-17T12:28:27.278Z,91856.97
2023-03-17T12:31:04.534Z,91854.22
2023-03-17T12:33:43.009Z,91857.19
2023-03-17T12:36:17.035Z,91851.47
2023-03-17T12:38:49.440Z,91854.44
2023-03-17T12:41:59.753Z,91854.31
2023-03-17T12:44:58.318Z,91845.41
2023-03-17T12:47:52.390Z,91850.13
2023-03-17T12:50:51.771Z,91852.38
2023-03-17T12:53:29.951Z,91851.72
2023-03-17T12:56:08.959Z,91852.78
2023-03-17T12:58:40.574Z,91846.88
2023-03-17T13:01:20.969Z,91839.94
2023-03-17T13:04:04.496Z,91841.47
2023-03-17T13:06:40.218Z,91843.13
2023-03-17T13:09:43.892Z,91841.88
2023-03-17T13:13:01.655Z,91837.81
2023-03-17T13:16:00.540Z,91841.78
2023-03-17T13:18:50.026Z,91828.72
2023-03-17T13:21:26.413Z,91843.88
2023-03-17T13:24:24.349Z,91841.44
2023-03-17T13:26:58.717Z,91836.78
2023-03-17T13:29:45.544Z,91853.94
2023-03-17T13:32:38.191Z,91851.03
2023-03-17T13:35:39.603Z,91843.31
2023-03-17T13:38:33.544Z,91846.78
2023-03-17T13:41:21.318Z,91841.19
2023-03-17T13:44:04.241Z,91834.47
2023-03-17T13:46:42.805Z,91841.44
2023-03-17T13:49:30.621Z,91840.81
2023-03-17T13:52:09.580Z,91839.56
2023-03-17T13:54:48.537Z,91844.25
2023-03-17T13:57:29.143Z,91837.03
2023-03-17T14:00:24.279Z,91842.75
2023-03-17T14:03:02.716Z,91858.94
2023-03-17T14:05:36.120Z,91853.56
2023-03-17T14:08:15.586Z,91839.25
2023-03-17T14:10:45.074Z,91862.59
2023-03-17T14:13:21.965Z,91857.56
2023-03-17T14:15:57.281Z,91857.91
2023-03-17T14:18:34.128Z,91844.69
2023-03-17T14:21:10.490Z,91846.03
2023-03-17T14:23:41.360Z,91845.16
2023-03-17T14:26:13.117Z,91848.25
2023-03-17T14:28:41.720Z,91835.19
2023-03-17T14:31:25.034Z,91842.63
2023-03-17T14:33:57.469Z,91846.09
2023-03-17T14:36:34.364Z,91833.94
2023-03-17T14:39:04.564Z,91837.56
2023-03-17T14:41:36.396Z,91841.63
2023-03-17T14:44:04.911Z,91837.31
2023-03-17T14:46:37.311Z,91835.47
2023-03-17T14:49:16.714Z,91833.25
2023-03-17T14:51:45.639Z,91834.91
2023-03-17T14:54:19.824Z,91830.91
2023-03-17T14:56:50.957Z,91835.09
2023-03-17T14:59:25.414Z,91832.44
2023-03-17T15:01:57.544Z,91831.25
2023-03-17T15:04:28.649Z,91830.47
2023-03-17T15:06:59.897Z,91833.44
2023-03-17T15:09:36.544Z,91825.31
2023-03-17T15:12:08.343Z,91822.66
2023-03-17T15:14:40.611Z,91826.13
2023-03-17T15:17:19.312Z,91832.69
2023-03-17T15:19:50.718Z,91830.72
2023-03-17T15:22:26.361Z,91833.38
2023-03-17T15:25:04.078Z,91839.38
2023-03-17T15:27:33.829Z,91847.13
2023-03-17T15:30:03.196Z,91844.84
2023-03-17T15:32:32.350Z,91840.06
2023-03-17T15:35:00.864Z,91849.72
2023-03-17T15:37:31.696Z,91852.00
2023-03-17T15:40:03.350Z,91856.88
2023-03-17T15:42:34.334Z,91852.50
2023-03-17T15:45:03.785Z,91852.41
2023-03-17T15:47:35.398Z,91851.22
2023-03-17T15:50:16.243Z,91831.31
2023-03-17T15:52:46.245Z,91844.03
2023-03-17T15:55:24.700Z,91842.69
2023-03-17T15:57:55.562Z,91846.50
2023-03-17T16:00:26.997Z,91839.84
2023-03-17T16:02:58.060Z,91840.72
2023-03-17T16:05:28.901Z,91855.38
2023-03-17T16:07:57.856Z,91852.97
2023-03-17T16:10:30.820Z,91854.91
2023-03-17T16:13:00.182Z,91849.91
2023-03-17T16:15:32.639Z,91850.88
2023-03-17T16:18:04.246Z,91846.38
2023-03-17T16:20:39.518Z,91836.59
2023-03-17T16:23:12.794Z,91848.06
2023-03-17T16:25:42.983Z,91843.16
2023-03-17T16:28:18.289Z,91845.09
2023-03-17T16:30:48.662Z,91846.34
2023-03-17T16:33:20.041Z,91851.63
2023-03-17T16:35:50.001Z,91851.22
2023-03-17T16:38:20.576Z,91845.69
2023-03-17T16:40:53.789Z,91848.09
2023-03-17T16:43:26.072Z,91841.28
2023-03-17T16:45:57.034Z,91857.16
2023-03-17T16:48:26.111Z,91859.56
2023-03-17T16:50:55.123Z,91856.09
2023-03-17T16:53:24.289Z,91862.44
2023-03-17T16:55:55.738Z,91864.75
2023-03-17T16:58:26.390Z,91865.06
2023-03-17T17:00:59.157Z,91865.84
2023-03-17T17:03:28.071Z,91868.06
2023-03-17T17:05:56.587Z,91876.59
2023-03-17T17:08:25.904Z,91877.56
2023-03-17T17:10:57.353Z,91885.84
2023-03-17T17:13:26.334Z,91873.63
2023-03-17T17:15:55.818Z,91878.91
2023-03-17T17:18:25.620Z,91882.78
2023-03-17T17:20:55.373Z,91883.28
2023-03-17T17:23:26.471Z,91869.81
2023-03-17T17:25:56.862Z,91870.78
2023-03-17T17:28:27.208Z,91882.44
2023-03-17T17:30:55.970Z,91889.97
2023-03-17T17:33:25.112Z,91896.41
2023-03-17T17:35:54.529Z,91892.78
2023-03-17T17:38:26.796Z,91901.06
2023-03-17T17:40:59.053Z,91900.69
2023-03-17T17:43:27.619Z,91903.16
2023-03-17T17:45:56.503Z,91896.78
2023-03-17T17:48:27.718Z,91899.91
2023-03-17T17:50:57.889Z,91899.78
2023-03-17T17:53:26.639Z,91906.47
2023-03-17T17:55:57.717Z,91905.97
2023-03-17T17:58:27.686Z,91915.13
2023-03-17T18:00:57.633Z,91910.09
2023-03-17T18:03:27.359Z,91910.72
2023-03-17T18:05:57.824Z,91922.28
2023-03-17T18:08:27.132Z,91916.13
2023-03-17T18:10:57.546Z,91927.94
2023-03-17T18:13:26.365Z,91924.94
2023-03-17T18:15:54.815Z,91927.06
2023-03-17T18:18:23.302Z,91929.59
2023-03-17T18:20:52.620Z,91925.56
2023-03-17T18:23:21.638Z,91928.50
2023-03-17T18:25:50.459Z,91920.31
2023-03-17T18:28:20.544Z,91921.53
2023-03-17T18:30:49.041Z,91920.25
2023-03-17T18:33:21.036Z,91916.31
2023-03-17T18:35:52.262Z,91920.34
2023-03-17T18:38:21.132Z,91926.91
2023-03-17T18:40:49.697Z,91919.34
2023-03-17T18:43:19.932Z,91925.31
2023-03-17T18:45:48.657Z,91923.16
2023-03-17T18:48:17.335Z,91927.59
2023-03-17T18:50:46.385Z,91922.88
2023-03-17T18:53:16.132Z,91927.25
2023-03-17T18:55:44.687Z,91926.09
2023-03-17T18:58:13.176Z,91929.22
2023-03-17T19:00:43.134Z,91920.31
2023-03-17T19:03:12.066Z,91922.53
2023-03-17T19:05:41.057Z,91920.69
2023-03-17T19:08:09.555Z,91928.56
2023-03-17T19:10:38.215Z,91936.28
2023-03-17T19:13:10.224Z,91917.03
2023-03-17T19:15:38.932Z,91924.06
2023-03-17T19:18:09.768Z,91916.75
2023-03-17T19:20:38.213Z,91922.31
2023-03-17T19:23:07.060Z,91921.09
2023-03-17T19:25:36.848Z,91924.22
2023-03-17T19:28:06.423Z,91935.19
2023-03-17T19:30:35.763Z,91928.78
2023-03-17T19:33:04.606Z,91920.38
2023-03-17T19:35:34.462Z,91937.56
2023-03-17T19:38:04.076Z,91922.97
2023-03-17T19:40:32.966Z,91928.38
2023-03-17T19:43:01.520Z,91924.28
2023-03-17T19:45:30.039Z,91924.13
2023-03-17T19:47:58.762Z,91930.69
2023-03-17T19:50:27.491Z,91924.44
2023-03-17T19:52:57.570Z,91931.88
2023-03-17T19:55:27.065Z,91927.00
2023-03-17T19:57:55.708Z,91933.81
2023-03-17T20:00:24.731Z,91930.84
2023-03-17T20:02:53.254Z,91934.69
2023-03-17T20:05:22.130Z,91940.47
2023-03-17T20:07:50.614Z,91932.44
2023-03-17T20:10:20.972Z,91935.94
2023-03-17T20:12:49.450Z,91934.78
2023-03-17T20:15:18.464Z,91935.94
2023-03-17T20:17:47.028Z,91938.63
2023-03-17T20:20:16.148Z,91939.00
2023-03-17T20:22:45.254Z,91948.25
2023-03-17T20:25:13.942Z,91946.72
2023-03-17T20:27:43.840Z,91950.53
2023-03-17T20:30:13.579Z,91946.69
2023-03-17T20:32:42.076Z,91952.44
2023-03-17T20:35:11.269Z,91947.09
2023-03-17T20:37:40.056Z,91951.28
2023-03-17T20:40:10.734Z,91946.34
2023-03-17T20:42:39.456Z,91953.19
2023-03-17T20:45:10.361Z,91940.19
2023-03-17T20:47:38.820Z,91959.00
2023-03-17T20:50:09.984Z,91955.94
2023-03-17T20:52:39.770Z,91952.06
2023-03-17T20:55:13.939Z,91951.25
2023-03-17T20:57:45.592Z,91958.72
2023-03-17T21:00:20.105Z,91961.56
2023-03-17T21:02:50.645Z,91960.41
2023-03-17T21:05:23.146Z,91953.34
2023-03-17T21:07:52.754Z,91950.84
2023-03-17T21:10:21.713Z,91964.00
2023-03-17T21:12:50.456Z,91960.22
2023-03-17T21:15:22.895Z,91969.94
2023-03-17T21:17:51.419Z,91962.78
2023-03-17T21:20:21.480Z,91971.56
2023-03-17T21:22:50.040Z,91967.28
2023-03-17T21:25:19.286Z,91969.13
2023-03-17T21:27:47.790Z,91972.13
2023-03-17T21:30:16.754Z,91971.66
2023-03-17T21:32:46.570Z,91965.97
2023-03-17T21:35:16.534Z,91981.88
2023-03-17T21:37:45.050Z,91976.25
2023-03-17T21:40:16.009Z,91983.31
2023-03-17T21:42:44.538Z,91983.94
2023-03-17T21:45:13.871Z,91975.59
2023-03-17T21:47:42.601Z,91989.25
2023-03-17T21:50:14.216Z,91984.16
2023-03-17T21:52:43.819Z,91993.56
2023-03-17T21:55:12.412Z,91996.81
2023-03-17T21:57:40.877Z,91989.63
2023-03-17T22:00:12.381Z,91992.22
2023-03-17T22:02:41.838Z,91995.34
2023-03-17T22:05:12.105Z,91988.28
2023-03-17T22:10:30.074Z,91986.84
2023-03-17T22:12:58.606Z,91986.66
2023-03-17T22:15:27.036Z,91983.56
2023-03-17T22:17:56.900Z,91980.09
2023-03-17T22:20:26.732Z,91984.09
2023-03-17T22:22:55.177Z,91986.59
2023-03-17T22:25:24.058Z,91979.00
2023-03-17T22:27:53.735Z,91992.81
2023-03-17T22:30:22.495Z,91969.47
2023-03-17T22:32:51.155Z,91990.59
2023-03-17T22:35:20.948Z,91996.09
2023-03-17T22:37:51.046Z,91998.22
2023-03-17T22:40:19.784Z,91993.28
2023-03-17T22:42:48.262Z,92003.66
2023-03-17T22:45:17.942Z,92001.31
2023-03-17T22:47:46.389Z,92001.84
2023-03-17T22:50:15.049Z,92016.44
2023-03-17T22:52:43.572Z,91994.38
2023-03-17T22:55:13.745Z,92016.78
2023-03-17T22:57:42.322Z,92004.16
2023-03-17T23:00:17.269Z,92006.88
2023-03-17T23:02:46.375Z,92016.56
2023-03-17T23:05:16.153Z,92007.94
2023-03-17T23:07:50.628Z,92020.13
2023-03-17T23:10:24.696Z,92022.31
2023-03-17T23:12:53.910Z,92021.78
2023-03-17T23:15:23.136Z,92023.13
2023-03-17T23:17:51.995Z,92024.06
2023-03-17T23:20:20.709Z,92026.97
2023-03-17T23:22:49.597Z,92036.59
2023-03-17T23:25:18.756Z,92034.31
2023-03-17T23:27:49.397Z,92033.09
2023-03-17T23:30:18.862Z,92028.44
2023-03-17T23:32:48.268Z,92028.44
2023-03-17T23:35:17.536Z,92048.69
2023-03-17T23:37:46.042Z,92035.59
2023-03-17T23:40:17.311Z,92037.13
2023-03-17T23:42:49.240Z,92040.78
2023-03-17T23:45:18.715Z,92037.97
2023-03-17T23:47:48.739Z,92041.50
2023-03-17T23:50:17.746Z,92041.91
2023-03-17T23:52:47.348Z,92045.25
2023-03-17T23:55:17.168Z,92047.16
2023-03-17T23:57:47.356Z,92045.25
